createdAt,value
2022-09-11T00:01:33.270Z,14.50
2022-09-11T00:04:00.299Z,14.80
2022-09-11T00:06:30.035Z,14.50
2022-09-11T00:09:01.630Z,14.70
2022-09-11T00:11:42.517Z,14.80
2022-09-11T00:14:12.175Z,14.40
2022-09-11T00:16:41.719Z,14.50
2022-09-11T00:19:15.233Z,14.40
2022-09-11T00:21:42.107Z,14.60
2022-09-11T00:24:12.113Z,14.60
2022-09-11T00:26:40.820Z,14.40
2022-09-11T00:29:08.122Z,14.60
2022-09-11T00:31:35.045Z,14.70
2022-09-11T00:34:01.899Z,14.40
2022-09-11T00:36:31.570Z,14.80
2022-09-11T00:38:59.647Z,14.70
2022-09-11T00:41:32.092Z,14.40
2022-09-11T00:44:02.763Z,14.30
2022-09-11T00:46:55.535Z,14.40
2022-09-11T00:49:38.601Z,14.70
2022-09-11T00:52:13.734Z,14.10
2022-09-11T00:54:49.615Z,14.10
2022-09-11T00:57:18.665Z,14.50
2022-09-11T00:59:48.122Z,14.30
2022-09-11T01:02:19.385Z,14.10
2022-09-11T01:04:48.011Z,14.40
2022-09-11T01:07:18.235Z,14.00
2022-09-11T01:09:45.107Z,14.40
2022-09-11T01:12:33.723Z,14.30
2022-09-11T01:15:12.641Z,14.50
2022-09-11T01:17:46.989Z,14.40
2022-09-11T01:20:32.822Z,14.30
2022-09-11T01:23:14.458Z,14.20
2022-09-11T01:25:44.093Z,14.20
2022-09-11T01:28:16.595Z,14.00
2022-09-11T01:30:50.909Z,14.00
2022-09-11T01:33:28.555Z,14.20
2022-09-11T01:36:00.190Z,14.00
2022-09-11T01:38:39.175Z,14.10
2022-09-11T01:41:15.384Z,14.30
2022-09-11T01:43:58.083Z,14.30
2022-09-11T01:46:29.224Z,14.00
2022-09-11T01:49:08.245Z,14.30
2022-09-11T01:51:36.427Z,14.30
2022-09-11T01:54:07.892Z,14.40
2022-09-11T01:56:41.638Z,13.90
2022-09-11T01:59:12.282Z,14.30
2022-09-11T02:01:44.053Z,14.20
2022-09-11T02:04:27.364Z,14.40
2022-09-11T02:07:36.496Z,14.60
2022-09-11T02:10:09.666Z,14.10
2022-09-11T02:12:57.848Z,14.10
2022-09-11T02:15:31.594Z,14.10
2022-09-11T02:18:07.190Z,14.10
2022-09-11T02:20:36.175Z,14.10
2022-09-11T02:23:03.145Z,14.10
2022-09-11T02:25:29.941Z,14.10
2022-09-11T02:27:56.727Z,14.10
2022-09-11T02:30:24.097Z,14.20
2022-09-11T02:32:51.128Z,14.20
2022-09-11T02:35:17.959Z,14.30
2022-09-11T02:37:50.605Z,14.20
2022-09-11T02:40:27.151Z,14.30
2022-09-11T02:43:02.780Z,14.30
2022-09-11T02:45:42.592Z,14.40
2022-09-11T02:48:53.324Z,14.40
2022-09-11T02:51:55.911Z,14.50
2022-09-11T02:54:34.521Z,14.50
2022-09-11T02:57:12.792Z,14.60
2022-09-11T02:59:45.683Z,14.60
2022-09-11T03:02:15.074Z,14.60
2022-09-11T03:04:46.621Z,14.50
2022-09-11T03:07:13.416Z,14.60
2022-09-11T03:09:42.660Z,14.60
2022-09-11T03:12:10.495Z,14.60
2022-09-11T03:14:38.853Z,14.60
2022-09-11T03:17:06.532Z,14.60
2022-09-11T03:19:33.337Z,14.60
2022-09-11T03:22:00.099Z,14.60
2022-09-11T03:24:33.789Z,14.60
2022-09-11T03:27:01.123Z,14.60
2022-09-11T03:29:29.167Z,14.60
2022-09-11T03:31:57.402Z,14.60
2022-09-11T03:34:26.889Z,14.50
2022-09-11T03:36:53.789Z,14.50
2022-09-11T03:39:20.623Z,14.60
2022-09-11T03:41:47.381Z,14.60
2022-09-11T03:44:14.157Z,14.50
2022-09-11T03:46:41.147Z,14.60
2022-09-11T03:49:07.843Z,14.60
2022-09-11T03:51:35.223Z,14.50
2022-09-11T03:54:02.976Z,14.50
2022-09-11T03:56:31.648Z,14.50
2022-09-11T03:59:00.198Z,14.50
2022-09-11T04:01:28.499Z,14.40
2022-09-11T04:03:55.428Z,14.50
2022-09-11T04:06:22.207Z,14.50
2022-09-11T04:08:49.578Z,14.50
2022-09-11T04:11:16.475Z,14.50
2022-09-11T04:13:43.872Z,14.40
2022-09-11T04:16:18.156Z,14.40
2022-09-11T04:18:46.057Z,14.40
2022-09-11T04:21:15.673Z,14.40
2022-09-11T04:23:42.769Z,14.40
2022-09-11T04:26:18.605Z,14.40
2022-09-11T04:28:45.953Z,14.40
2022-09-11T04:31:16.278Z,14.40
2022-09-11T04:33:43.930Z,14.40
2022-09-11T04:36:20.115Z,14.30
2022-09-11T04:38:48.449Z,14.30
2022-09-11T04:41:16.433Z,14.30
2022-09-11T04:43:44.616Z,14.30
2022-09-11T04:46:17.085Z,14.30
2022-09-11T04:48:48.924Z,14.30
2022-09-11T04:51:28.953Z,14.30
2022-09-11T04:54:00.180Z,14.30
2022-09-11T04:56:32.736Z,14.30
2022-09-11T04:59:06.848Z,14.30
2022-09-11T05:01:34.239Z,14.30
2022-09-11T05:04:01.814Z,14.30
2022-09-11T05:06:31.097Z,14.30
2022-09-11T05:09:03.807Z,14.30
2022-09-11T05:11:30.772Z,14.30
2022-09-11T05:14:00.403Z,14.30
2022-09-11T05:16:29.664Z,14.20
2022-09-11T05:18:57.498Z,14.20
2022-09-11T05:21:25.889Z,14.20
2022-09-11T05:23:58.349Z,14.20
2022-09-11T05:26:29.483Z,14.20
2022-09-11T05:29:02.020Z,14.20
2022-09-11T05:31:29.711Z,14.20
2022-09-11T05:33:57.105Z,14.20
2022-09-11T05:36:24.892Z,14.20
2022-09-11T05:38:53.009Z,14.30
2022-09-11T05:41:20.490Z,14.30
2022-09-11T05:43:47.297Z,14.40
2022-09-11T05:46:16.357Z,14.40
2022-09-11T05:48:43.859Z,14.40
2022-09-11T05:51:13.288Z,14.40
2022-09-11T05:53:40.738Z,14.50
2022-09-11T05:56:10.324Z,14.50
2022-09-11T05:58:37.216Z,14.50
2022-09-11T06:01:09.620Z,14.60
2022-09-11T06:03:37.990Z,14.60
2022-09-11T06:06:07.156Z,14.60
2022-09-11T06:08:34.854Z,14.70
2022-09-11T06:11:02.815Z,14.60
2022-09-11T06:13:30.536Z,14.60
2022-09-11T06:15:57.542Z,14.70
2022-09-11T06:18:24.357Z,14.70
2022-09-11T06:21:09.031Z,14.70
2022-09-11T06:23:37.168Z,14.70
2022-09-11T06:26:06.017Z,14.70
2022-09-11T06:28:33.013Z,14.70
2022-09-11T06:31:01.024Z,14.80
2022-09-11T06:33:34.528Z,14.80
2022-09-11T06:36:04.033Z,14.80
2022-09-11T06:38:34.460Z,14.80
2022-09-11T06:41:06.464Z,14.80
2022-09-11T06:43:34.065Z,14.80
2022-09-11T06:46:15.126Z,14.80
2022-09-11T06:48:43.810Z,14.80
2022-09-11T06:51:12.766Z,14.90
2022-09-11T06:53:41.108Z,14.90
2022-09-11T06:56:12.800Z,14.90
2022-09-11T06:58:41.074Z,15.00
2022-09-11T07:01:16.001Z,15.00
2022-09-11T07:03:45.115Z,15.00
2022-09-11T07:06:15.212Z,15.10
2022-09-11T07:08:41.980Z,15.10
2022-09-11T07:11:09.932Z,15.20
2022-09-11T07:13:38.579Z,15.30
2022-09-11T07:16:14.545Z,15.30
2022-09-11T07:18:46.309Z,15.30
2022-09-11T07:21:23.200Z,15.40
2022-09-11T07:23:55.028Z,15.50
2022-09-11T07:26:24.135Z,15.50
2022-09-11T07:28:51.681Z,15.50
2022-09-11T07:31:29.621Z,15.50
2022-09-11T07:33:57.243Z,15.60
2022-09-11T07:36:31.007Z,15.30
2022-09-11T07:38:58.904Z,15.50
2022-09-11T07:41:27.064Z,15.50
2022-09-11T07:43:55.740Z,15.50
2022-09-11T07:46:22.996Z,15.50
2022-09-11T07:48:54.203Z,15.50
2022-09-11T07:51:21.228Z,15.50
2022-09-11T07:53:50.779Z,15.60
2022-09-11T07:56:23.834Z,15.60
2022-09-11T07:58:52.690Z,15.60
2022-09-11T08:01:21.898Z,15.60
2022-09-11T08:03:53.457Z,15.50
2022-09-11T08:06:22.526Z,15.60
2022-09-11T08:08:56.634Z,15.50
2022-09-11T08:11:26.533Z,15.50
2022-09-11T08:13:54.864Z,15.40
2022-09-11T08:16:25.531Z,15.50
2022-09-11T08:18:52.849Z,15.60
2022-09-11T08:21:20.511Z,15.60
2022-09-11T08:23:49.157Z,15.70
2022-09-11T08:26:22.704Z,15.80
2022-09-11T08:28:52.821Z,15.80
2022-09-11T08:31:22.372Z,15.90
2022-09-11T08:33:53.046Z,15.90
2022-09-11T08:36:20.340Z,15.90
2022-09-11T08:38:47.730Z,16.00
2022-09-11T08:41:39.715Z,16.00
2022-09-11T08:44:16.604Z,16.20
2022-09-11T08:46:48.046Z,16.30
2022-09-11T08:49:35.234Z,16.40
2022-09-11T08:52:05.501Z,16.60
2022-09-11T08:54:37.463Z,16.80
2022-09-11T08:57:29.652Z,16.90
2022-09-11T09:00:14.607Z,16.90
2022-09-11T09:02:41.737Z,17.00
2022-09-11T09:05:56.028Z,17.10
2022-09-11T09:08:57.135Z,17.00
2022-09-11T09:11:39.091Z,17.00
2022-09-11T09:14:29.629Z,17.00
2022-09-11T09:17:19.839Z,17.00
2022-09-11T09:20:15.696Z,17.10
2022-09-11T09:22:59.269Z,17.10
2022-09-11T09:25:26.891Z,17.10
2022-09-11T09:28:01.887Z,17.20
2022-09-11T09:30:34.537Z,17.20
2022-09-11T09:33:25.996Z,17.20
2022-09-11T09:35:54.572Z,17.20
2022-09-11T09:38:29.211Z,17.30
2022-09-11T09:41:21.535Z,17.30
2022-09-11T09:43:57.798Z,17.20
2022-09-11T09:46:24.469Z,17.10
2022-09-11T09:48:52.095Z,17.00
2022-09-11T09:51:19.047Z,17.10
2022-09-11T09:54:04.359Z,17.20
2022-09-11T09:56:34.611Z,17.30
2022-09-11T09:59:18.161Z,17.40
2022-09-11T10:01:51.593Z,17.60
2022-09-11T10:04:22.469Z,17.60
2022-09-11T10:06:52.194Z,17.70
2022-09-11T10:09:27.202Z,17.60
2022-09-11T10:12:02.689Z,17.70
2022-09-11T10:14:50.992Z,17.70
2022-09-11T10:17:23.612Z,17.70
2022-09-11T10:19:53.430Z,17.80
2022-09-11T10:22:32.437Z,17.90
2022-09-11T10:25:00.665Z,18.00
2022-09-11T10:27:31.166Z,18.00
2022-09-11T10:29:59.063Z,18.20
2022-09-11T10:32:29.156Z,18.30
2022-09-11T10:34:57.296Z,18.60
2022-09-11T10:37:28.156Z,18.80
2022-09-11T10:40:05.962Z,19.00
2022-09-11T10:42:35.380Z,19.30
2022-09-11T10:45:17.020Z,19.30
2022-09-11T10:47:46.466Z,19.20
2022-09-11T10:50:21.760Z,19.40
2022-09-11T10:53:09.717Z,19.40
2022-09-11T10:55:49.128Z,19.30
2022-09-11T10:58:23.944Z,19.30
2022-09-11T11:00:51.962Z,19.20
2022-09-11T11:03:25.851Z,19.00
2022-09-11T11:06:34.367Z,18.90
2022-09-11T11:09:13.196Z,18.80
2022-09-11T11:12:09.523Z,18.80
2022-09-11T11:14:54.848Z,18.90
2022-09-11T11:17:41.241Z,19.00
2022-09-11T11:20:37.305Z,19.10
2022-09-11T11:23:24.226Z,19.10
2022-09-11T11:26:00.576Z,19.20
2022-09-11T11:28:53.666Z,19.50
2022-09-11T11:31:54.039Z,19.60
2022-09-11T11:34:36.795Z,19.70
2022-09-11T11:37:12.444Z,19.60
2022-09-11T11:39:48.008Z,19.50
2022-09-11T11:42:31.642Z,19.50
2022-09-11T11:45:09.559Z,19.50
2022-09-11T11:47:42.491Z,19.50
2022-09-11T11:50:22.034Z,19.60
2022-09-11T11:53:02.896Z,19.80
2022-09-11T11:55:45.312Z,19.90
2022-09-11T11:58:41.802Z,20.10
2022-09-11T12:01:21.088Z,20.30
2022-09-11T12:04:11.142Z,20.50
2022-09-11T12:06:38.393Z,20.50
2022-09-11T12:09:10.100Z,20.50
2022-09-11T12:11:41.472Z,20.40
2022-09-11T12:14:27.851Z,20.30
2022-09-11T12:16:56.467Z,20.30
2022-09-11T12:19:28.724Z,20.30
2022-09-11T12:21:56.814Z,20.20
2022-09-11T12:24:55.597Z,20.30
2022-09-11T12:27:35.699Z,20.30
2022-09-11T12:30:24.948Z,20.20
2022-09-11T12:33:01.245Z,20.30
2022-09-11T12:35:32.662Z,20.40
2022-09-11T12:38:13.343Z,20.30
2022-09-11T12:40:48.661Z,20.50
2022-09-11T12:43:39.734Z,20.40
2022-09-11T12:46:36.733Z,20.40
2022-09-11T12:49:22.951Z,20.50
2022-09-11T12:52:01.410Z,20.40
2022-09-11T12:54:42.610Z,20.50
2022-09-11T12:57:20.436Z,20.30
2022-09-11T12:59:55.888Z,20.40
2022-09-11T13:02:36.658Z,20.40
2022-09-11T13:05:16.094Z,20.40
2022-09-11T13:07:49.557Z,20.40
2022-09-11T13:10:37.201Z,20.40
2022-09-11T13:13:35.723Z,20.50
2022-09-11T13:16:29.456Z,20.60
2022-09-11T13:19:17.831Z,20.50
2022-09-11T13:21:45.831Z,20.60
2022-09-11T13:24:27.516Z,20.60
2022-09-11T13:27:24.012Z,20.50
2022-09-11T13:29:55.920Z,20.50
2022-09-11T13:32:25.307Z,20.60
2022-09-11T13:35:01.970Z,20.60
2022-09-11T13:37:44.075Z,20.50
2022-09-11T13:40:41.884Z,20.60
2022-09-11T13:43:20.157Z,20.60
2022-09-11T13:45:47.510Z,20.50
2022-09-11T13:48:24.183Z,20.30
2022-09-11T13:50:52.371Z,20.20
2022-09-11T13:53:20.015Z,20.00
2022-09-11T13:55:49.206Z,19.80
2022-09-11T13:58:35.210Z,19.80
2022-09-11T14:01:12.732Z,19.60
2022-09-11T14:03:45.826Z,19.60
2022-09-11T14:06:20.025Z,19.50
2022-09-11T14:08:55.269Z,19.50
2022-09-11T14:11:31.849Z,19.50
2022-09-11T14:14:11.778Z,19.50
2022-09-11T14:16:47.984Z,19.40
2022-09-11T14:19:31.014Z,19.40
2022-09-11T14:21:58.621Z,19.30
2022-09-11T14:24:35.886Z,19.20
2022-09-11T14:27:33.032Z,19.20
2022-09-11T14:30:00.625Z,19.00
2022-09-11T14:32:37.943Z,19.00
2022-09-11T14:35:10.076Z,18.90
2022-09-11T14:37:45.643Z,18.80
2022-09-11T14:40:19.440Z,18.80
2022-09-11T14:42:48.456Z,18.60
2022-09-11T14:45:22.392Z,18.70
2022-09-11T14:47:49.430Z,18.60
2022-09-11T14:50:16.747Z,18.60
2022-09-11T14:52:43.881Z,18.70
2022-09-11T14:55:15.898Z,18.70
2022-09-11T14:57:42.769Z,18.90
2022-09-11T15:00:13.546Z,18.90
2022-09-11T15:02:40.248Z,19.00
2022-09-11T15:05:21.703Z,19.10
2022-09-11T15:07:49.199Z,19.30
2022-09-11T15:10:16.593Z,19.40
2022-09-11T15:12:44.507Z,19.60
2022-09-11T15:15:11.590Z,19.80
2022-09-11T15:17:38.740Z,19.90
2022-09-11T15:20:11.404Z,20.10
2022-09-11T15:22:38.461Z,20.20
2022-09-11T15:25:05.890Z,20.30
2022-09-11T15:27:32.664Z,20.40
2022-09-11T15:30:00.549Z,20.40
2022-09-11T15:32:27.492Z,20.40
2022-09-11T15:34:54.820Z,20.40
2022-09-11T15:37:21.576Z,20.40
2022-09-11T15:39:50.344Z,20.50
2022-09-11T15:42:17.513Z,20.30
2022-09-11T15:44:46.192Z,20.30
2022-09-11T15:47:13.805Z,20.30
2022-09-11T15:49:42.271Z,20.10
2022-09-11T15:52:09.228Z,20.00
2022-09-11T15:54:35.984Z,20.00
2022-09-11T15:57:02.869Z,19.90
2022-09-11T15:59:29.629Z,19.80
2022-09-11T16:01:56.480Z,19.70
2022-09-11T16:04:28.256Z,19.60
2022-09-11T16:06:55.445Z,19.60
2022-09-11T16:09:25.540Z,19.50
2022-09-11T16:11:54.466Z,19.50
2022-09-11T16:14:33.778Z,19.40
2022-09-11T16:17:02.978Z,19.40
2022-09-11T16:19:30.508Z,19.40
2022-09-11T16:21:59.028Z,19.30
2022-09-11T16:24:28.282Z,19.20
2022-09-11T16:26:55.922Z,19.20
2022-09-11T16:29:24.598Z,19.20
2022-09-11T16:31:51.455Z,19.10
2022-09-11T16:34:18.168Z,19.00
2022-09-11T16:36:46.153Z,19.10
2022-09-11T16:39:15.941Z,19.00
2022-09-11T16:41:43.228Z,19.00
2022-09-11T16:44:13.048Z,18.90
2022-09-11T16:46:40.799Z,19.00
2022-09-11T16:49:08.812Z,18.90
2022-09-11T16:51:35.697Z,18.70
2022-09-11T16:54:04.360Z,18.70
2022-09-11T16:56:31.606Z,18.70
2022-09-11T16:58:59.856Z,18.60
2022-09-11T17:01:27.920Z,18.60
2022-09-11T17:03:57.270Z,18.50
2022-09-11T17:06:31.169Z,18.40
2022-09-11T17:09:00.363Z,18.40
2022-09-11T17:11:29.676Z,18.30
2022-09-11T17:13:56.667Z,18.20
2022-09-11T17:16:28.010Z,18.10
2022-09-11T17:18:56.744Z,18.10
2022-09-11T17:21:24.677Z,18.00
2022-09-11T17:23:53.604Z,17.90
2022-09-11T17:26:21.317Z,18.00
2022-09-11T17:28:49.388Z,17.90
2022-09-11T17:31:19.158Z,17.70
2022-09-11T17:33:46.882Z,17.80
2022-09-11T17:36:17.194Z,17.60
2022-09-11T17:38:46.173Z,17.60
2022-09-11T17:41:14.578Z,17.50
2022-09-11T17:43:41.336Z,17.40
2022-09-11T17:46:18.072Z,17.40
2022-09-11T17:48:45.716Z,17.30
2022-09-11T17:51:24.625Z,17.20
2022-09-11T17:53:56.143Z,17.20
2022-09-11T17:56:25.810Z,17.00
2022-09-11T17:58:54.430Z,17.00
2022-09-11T18:01:23.408Z,17.00
2022-09-11T18:03:52.675Z,16.90
2022-09-11T18:06:25.431Z,16.90
2022-09-11T18:08:53.005Z,16.90
2022-09-11T18:11:19.854Z,16.80
2022-09-11T18:13:46.593Z,16.80
2022-09-11T18:16:13.405Z,16.70
2022-09-11T18:18:40.204Z,16.70
2022-09-11T18:21:09.535Z,16.70
2022-09-11T18:23:39.756Z,16.70
2022-09-11T18:26:09.748Z,16.70
2022-09-11T18:28:40.391Z,16.70
2022-09-11T18:31:07.196Z,16.70
2022-09-11T18:33:34.208Z,16.60
2022-09-11T18:36:07.966Z,16.70
2022-09-11T18:38:35.525Z,16.70
2022-09-11T18:41:02.264Z,16.60
2022-09-11T18:43:30.788Z,16.70
2022-09-11T18:46:02.082Z,16.70
2022-09-11T18:48:28.869Z,16.60
2022-09-11T18:51:00.058Z,16.70
2022-09-11T18:53:27.103Z,16.60
2022-09-11T18:56:07.056Z,16.60
2022-09-11T18:58:37.423Z,16.60
2022-09-11T19:01:10.539Z,16.60
2022-09-11T19:03:40.923Z,16.60
2022-09-11T19:06:12.804Z,16.50
2022-09-11T19:08:42.733Z,16.50
2022-09-11T19:11:13.068Z,16.40
2022-09-11T19:13:41.431Z,16.40
2022-09-11T19:16:09.203Z,16.30
2022-09-11T19:18:41.903Z,16.30
2022-09-11T19:21:14.668Z,16.30
2022-09-11T19:23:43.776Z,16.30
2022-09-11T19:26:22.889Z,16.30
2022-09-11T19:28:51.051Z,16.20
2022-09-11T19:31:21.734Z,16.10
2022-09-11T19:33:50.075Z,16.10
2022-09-11T19:36:21.623Z,16.20
2022-09-11T19:38:52.132Z,16.00
2022-09-11T19:41:21.591Z,16.00
2022-09-11T19:46:56.250Z,15.90
2022-09-11T19:49:23.454Z,15.90
2022-09-11T19:51:53.309Z,15.90
2022-09-11T19:54:20.039Z,15.80
2022-09-11T19:56:49.656Z,15.80
2022-09-11T19:59:16.946Z,15.70
2022-09-11T20:01:44.217Z,15.70
2022-09-11T20:04:13.147Z,15.70
2022-09-11T20:06:41.368Z,15.70
2022-09-11T20:09:29.858Z,15.60
2022-09-11T20:11:55.564Z,15.60
2022-09-11T20:14:23.062Z,15.60
2022-09-11T20:16:49.835Z,15.60
2022-09-11T20:19:17.345Z,15.60
2022-09-11T20:21:44.447Z,15.50
2022-09-11T20:24:11.247Z,15.50
2022-09-11T20:26:38.211Z,15.40
2022-09-11T20:29:08.719Z,15.40
2022-09-11T20:31:46.518Z,15.40
2022-09-11T20:34:15.094Z,15.40
2022-09-11T20:36:43.051Z,15.40
2022-09-11T20:39:13.780Z,15.30
2022-09-11T20:41:42.810Z,15.30
2022-09-11T20:44:10.355Z,15.30
2022-09-11T20:46:37.322Z,15.30
2022-09-11T20:49:05.224Z,15.30
2022-09-11T20:51:32.986Z,15.30
2022-09-11T20:54:00.577Z,15.30
2022-09-11T20:56:28.290Z,15.30
2022-09-11T20:58:56.714Z,15.20
2022-09-11T21:01:25.450Z,15.20
2022-09-11T21:03:55.250Z,15.20
2022-09-11T21:06:27.029Z,15.20
2022-09-11T21:08:56.734Z,15.10
2022-09-11T21:11:25.064Z,15.10
2022-09-11T21:13:52.207Z,15.10
2022-09-11T21:16:20.042Z,15.00
2022-09-11T21:18:54.002Z,15.00
2022-09-11T21:21:22.667Z,15.00
2022-09-11T21:23:54.329Z,15.00
2022-09-11T21:26:22.548Z,15.00
2022-09-11T21:28:49.276Z,15.00
2022-09-11T21:31:16.140Z,14.90
2022-09-11T21:33:43.374Z,14.90
2022-09-11T21:36:10.168Z,14.90
2022-09-11T21:38:37.495Z,14.90
2022-09-11T21:41:06.596Z,14.80
2022-09-11T21:43:33.686Z,14.80
2022-09-11T21:46:00.825Z,14.80
2022-09-11T21:48:28.865Z,14.80
2022-09-11T21:51:06.419Z,14.80
2022-09-11T21:53:33.206Z,14.80
2022-09-11T21:56:00.075Z,14.70
2022-09-11T21:58:26.844Z,14.70
2022-09-11T22:00:53.766Z,14.70
2022-09-11T22:03:20.783Z,14.70
2022-09-11T22:05:49.236Z,14.70
2022-09-11T22:08:18.467Z,14.60
2022-09-11T22:10:49.162Z,14.60
2022-09-11T22:13:18.604Z,14.50
2022-09-11T22:15:47.661Z,14.50
2022-09-11T22:18:15.260Z,14.50
2022-09-11T22:20:42.840Z,14.50
2022-09-11T22:23:22.396Z,14.50
2022-09-11T22:26:07.733Z,14.50
2022-09-11T22:28:35.604Z,14.50
2022-09-11T22:31:10.668Z,14.50
2022-09-11T22:33:38.861Z,14.40
2022-09-11T22:36:16.903Z,14.40
2022-09-11T22:38:43.751Z,14.40
2022-09-11T22:41:10.512Z,14.40
2022-09-11T22:43:38.417Z,14.40
2022-09-11T22:46:06.314Z,14.40
2022-09-11T22:48:33.488Z,14.40
2022-09-11T22:51:01.850Z,14.40
2022-09-11T22:53:29.240Z,14.40
2022-09-11T22:55:56.200Z,14.30
2022-09-11T22:58:23.912Z,14.30
2022-09-11T23:00:53.852Z,14.30
2022-09-11T23:03:20.701Z,14.30
2022-09-11T23:06:05.941Z,14.20
2022-09-11T23:08:39.161Z,14.20
2022-09-11T23:11:06.715Z,14.20
2022-09-11T23:13:34.049Z,14.20
2022-09-11T23:16:01.037Z,14.20
2022-09-11T23:18:28.331Z,14.20
2022-09-11T23:20:56.776Z,14.10
2022-09-11T23:23:25.486Z,14.10
2022-09-11T23:25:52.210Z,14.10
2022-09-11T23:28:19.320Z,14.10
2022-09-11T23:30:46.088Z,14.00
2022-09-11T23:33:12.894Z,13.90
2022-09-11T23:35:40.372Z,13.90
2022-09-11T23:38:08.002Z,13.90
2022-09-11T23:40:35.250Z,14.00
2022-09-11T23:43:03.176Z,13.90
2022-09-11T23:45:29.996Z,13.90
2022-09-11T23:47:57.953Z,13.90
2022-09-11T23:50:24.652Z,13.90
2022-09-11T23:52:51.416Z,13.90
2022-09-11T23:55:19.650Z,13.90
2022-09-11T23:57:47.882Z,13.90
